• Join FlightAware (Why Join?)
  • Login
  • US Flag 
12:09AM EST


 

Airport Tracker/Info


-or-


 

Live Flight TrackerFlight Track Log ✈ N6711G ✈ 16-May-2013 ✈ KHXD - KPDK

Flight Track Log - Related Links

Times and Time Zones

All times are in EDT time to prevent confusion due to time zone crossing. See the N6711G flight status page for this flight to view local times or setup timezone preferences in your user account.

Time Position Orientation Groundspeed Altitude Reporting Facility
EDT Latitude Longitude Course Direction KTS MPH feet Rate Location/Type
08:34PM 32.3421 -80.9513 300° West  Level FlightAware Approximate
08:35PM 32.3637 -80.9955 300° West  Level FlightAware Approximate
08:36PM 32.3853 -81.0398 300° West  Level FlightAware Approximate
08:37PM 32.4068 -81.0842 300° West  Level FlightAware Approximate
08:38PM 32.4284 -81.1285 300° West  Level FlightAware Approximate
08:39PM 32.4500 -81.1729 300° West  Level FlightAware Approximate
08:40PM 32.4715 -81.2172 300° West  Level FlightAware Approximate
08:41PM 32.4930 -81.2616 300° West  Level FlightAware Approximate
08:42PM 32.5145 -81.3061 300° West  Level FlightAware Approximate
08:43PM 32.5360 -81.3505 300° West  Level FlightAware Approximate
08:44PM 32.5574 -81.3950 300° West  Level FlightAware Approximate
08:45PM 32.5789 -81.4395 300° West  Level FlightAware Approximate
08:45PM 32.3992 -81.3450 297° West 141 162 5,900  Level Jacksonville Center
08:46PM 32.6003 -81.4840 297° West  Level FlightAware Approximate
08:46PM 32.4186 -81.3839 301° West 141 162 5,900  Level Jacksonville Center
08:47PM 32.6202 -81.5295 297° West  Level FlightAware Approximate
08:47PM 32.4336 -81.4206 296° West 141 162 6,000  Level Jacksonville Center
08:48PM 32.6400 -81.5750 297° West  Level FlightAware Approximate
08:48PM 32.4528 -81.4597 300° West 136 157 6,000  Level Jacksonville Center
08:49PM 32.6599 -81.6206 297° West  Level FlightAware Approximate
08:49PM 32.4761 -81.5011 304° West 136 157 6,000  Level Jacksonville Center
08:50PM 32.6797 -81.6662 297° West  Level FlightAware Approximate
08:50PM 32.4975 -81.5403 303° West 141 162 6,000  Level Jacksonville Center
08:51PM 32.6995 -81.7118 297° West  Level FlightAware Approximate
08:51PM 32.5167 -81.5794 300° West 141 162 6,000  Level Jacksonville Center
08:52PM 32.5400 -81.6233 302° West 141 162 6,000  Level Jacksonville Center
08:53PM 32.5614 -81.6603 304° West 136 157 6,000  Level Jacksonville Center
08:55PM 32.5994 -81.7311 303° West 154 177 6,000  Level Atlanta Center
08:56PM 32.6192 -81.7725 300° West 154 177 6,000  Level Atlanta Center
08:57PM 32.6406 -81.8114 303° West 148 170 6,000  Level Atlanta Center
08:58PM 32.6603 -81.8528 300° West 143 165 6,000  Level Atlanta Center
08:59PM 32.6817 -81.8917 303° West 143 165 6,000  Level Atlanta Center
09:00PM 32.7011 -81.9333 299° West 138 159 6,000  Level Atlanta Center
09:01PM 32.7206 -81.9722 301° West 138 159 6,000  Level Atlanta Center
09:02PM 32.7422 -82.0114 303° West 138 159 6,000  Level Atlanta Center
09:03PM 32.7636 -82.0503 303° West 138 159 6,000  Level Atlanta Center
09:04PM 32.7831 -82.0919 299° West 138 159 6,000  Level Atlanta Center
09:05PM 32.8025 -82.1286 302° West 138 159 6,000  Level Atlanta Center
09:06PM 32.8239 -82.1675 303° West 138 159 6,000  Level Atlanta Center
09:07PM 32.8456 -82.2142 299° West 138 159 6,000  Level Atlanta Center
09:08PM 32.8669 -82.2508 305° West 138 159 6,000  Level Atlanta Center
09:09PM 32.8864 -82.2925 299° West 138 159 6,000  Level Atlanta Center
09:10PM 32.9078 -82.3292 305° West 138 159 6,000  Level Atlanta Center
09:11PM 32.9272 -82.3683 301° West 138 159 6,000  Level Atlanta Center
09:12PM 32.9464 -82.4100 299° West 138 159 6,000  Level Atlanta Center
09:13PM 32.9658 -82.4469 302° West 138 159 6,000  Level Atlanta Center
09:15PM 32.9898 -82.4972 300° West  Level FlightAware Approximate
09:17PM 33.0500 -82.6000 300° West 143 165 6,000  Level Atlanta TRACON
09:18PM 33.0667 -82.6333 301° West 142 163 6,000  Level Atlanta TRACON
09:19PM 33.0833 -82.6667 301° West 141 162 6,000  Level Atlanta TRACON
09:20PM 33.1000 -82.7000 301° West 142 163 6,000  Level Atlanta TRACON
09:21PM 33.1167 -82.7500 292° West 138 159 6,000  Level Atlanta TRACON
09:22PM 33.1219 -82.7757 300° West  Level FlightAware Approximate
09:22PM 33.1333 -82.8000 292° West 145 167 6,000  Level Atlanta TRACON
09:23PM 33.1667 -82.8333 320° Northwest 140 161 6,000  Level Atlanta TRACON
09:24PM 33.1833 -82.8667 301° West 142 163 6,000 -120 Level Atlanta TRACON
09:25PM 33.2000 -82.9000 301° West 146 168 5,800 -300 Descending Atlanta TRACON
09:26PM 33.2167 -82.9500 292° West 156 180 5,500 -360 Descending Atlanta TRACON
09:27PM 33.2500 -83.0000 309° West 162 186 5,100 -360 Descending Atlanta TRACON
09:28PM 33.2667 -83.0500 292° West 162 186 4,800 -360 Descending Atlanta TRACON
09:29PM 33.2833 -83.1000 292° West 161 185 4,400 -420 Descending Atlanta TRACON
09:30PM 33.3000 -83.1500 292° West 163 188 4,000 -240 Descending Atlanta TRACON
09:31PM 33.3000 -83.2000 270° West 152 175 4,000  Level Atlanta TRACON
09:32PM 33.3167 -83.2500 292° West 148 170 4,000  Level Atlanta TRACON
09:33PM 33.3167 -83.3000 270° West 150 173 4,100  Climbing Atlanta TRACON
09:34PM 33.3333 -83.3500 292° West 149 171 4,100 -60 Level Atlanta TRACON
09:35PM 33.3333 -83.3833 270° West 151 174 4,000  Descending Atlanta TRACON
09:36PM 33.3500 -83.4333 292° West 151 174 4,100  Climbing Atlanta TRACON
09:37PM 33.3500 -83.4833 270° West 152 175 4,100  Level Atlanta TRACON
09:38PM 33.3667 -83.5333 292° West 153 176 4,100  Level Atlanta TRACON
09:39PM 33.3833 -83.5833 292° West 154 177 4,100  Level Atlanta TRACON
09:40PM 33.3833 -83.6333 270° West 155 178 4,100  Level Atlanta TRACON
09:41PM 33.4000 -83.6833 292° West 155 178 4,100  Level Atlanta TRACON
09:42PM 33.4333 -83.7000 337° Northwest 170 196 4,100  Level Atlanta TRACON
09:43PM 33.4833 -83.7167 344° North 169 194 4,100 -60 Level Atlanta TRACON
09:44PM 33.5333 -83.7167 360° North 175 201 4,000  Descending Atlanta TRACON
09:45PM 33.5833 -83.7333 344° North 168 193 4,100  Climbing Atlanta TRACON
09:46PM 33.6333 -83.7500 344° North 166 191 4,100  Level Atlanta TRACON
09:47PM 33.6667 -83.7667 337° Northwest 162 186 4,100  Level Atlanta TRACON
09:48PM 33.7000 -83.8000 320° Northwest 159 183 4,100  Level Atlanta TRACON
09:49PM 33.7333 -83.8333 320° Northwest 156 180 4,100  Level Atlanta TRACON
09:50PM 33.7667 -83.8667 320° Northwest 155 178 4,100  Level Atlanta TRACON
09:51PM 33.8000 -83.9000 320° Northwest 158 182 4,100  Level Atlanta TRACON
09:52PM 33.8333 -83.9333 320° Northwest 156 180 4,100  Level Atlanta TRACON
09:53PM 33.8667 -83.9667 320° Northwest 166 191 4,100 -300 Level Atlanta TRACON
09:56PM 33.9167 -84.1000 294° West 167 192 3,100 -420 Descending Atlanta TRACON
09:57PM 33.9333 -84.1667 287° West 163 188 2,600 -600 Descending Atlanta TRACON
09:58PM 33.9333 -84.2000 270° West 173 199 2,000 -300 Descending Atlanta TRACON
09:59PM 33.9167 -84.2500 248° West 117 135 2,000 -60 Level Atlanta TRACON
10:00PM 33.9167 -84.2667 270° West 107 123 1,900 -360 Descending Atlanta TRACON
10:01PM 33.9000 -84.3000 239° Southwest 85 98 1,300 -600 Descending Atlanta TRACON
10:03PM 33.8756 -84.3020 259° West  Level Estimated
10:10PM 33.8756 -84.3020 259° West  Level Estimated